sensor_id;sensor_type;location;lat;lon;timestamp;pressure;altitude;pressure_sealevel;temperature;humidity
73242;BME280;65659;49.234;-2.094;2023-02-01T00:01:09;101832.14;;;23.10;26.16
73242;BME280;65659;49.234;-2.094;2023-02-01T00:03:35;101830.41;;;23.37;26.12
73242;BME280;65659;49.234;-2.094;2023-02-01T00:06:00;101827.63;;;23.33;26.11
73242;BME280;65659;49.234;-2.094;2023-02-01T00:08:25;101832.82;;;23.33;26.14
73242;BME280;65659;49.234;-2.094;2023-02-01T00:10:57;101833.40;;;23.33;26.11
73242;BME280;65659;49.234;-2.094;2023-02-01T00:13:17;101825.73;;;23.34;26.07
73242;BME280;65659;49.234;-2.094;2023-02-01T00:15:43;101825.31;;;23.32;26.12
73242;BME280;65659;49.234;-2.094;2023-02-01T00:18:08;101827.62;;;23.33;26.10
73242;BME280;65659;49.234;-2.094;2023-02-01T00:20:34;101836.26;;;23.09;26.09
73242;BME280;65659;49.234;-2.094;2023-02-01T00:22:59;101833.74;;;23.34;26.09
73242;BME280;65659;49.234;-2.094;2023-02-01T00:25:25;101829.36;;;23.35;26.00
73242;BME280;65659;49.234;-2.094;2023-02-01T00:27:50;101827.91;;;23.31;26.03
73242;BME280;65659;49.234;-2.094;2023-02-01T00:30:17;101825.52;;;23.52;26.06
73242;BME280;65659;49.234;-2.094;2023-02-01T00:32:42;101827.26;;;23.27;26.09
73242;BME280;65659;49.234;-2.094;2023-02-01T00:35:08;101829.36;;;23.26;26.07
73242;BME280;65659;49.234;-2.094;2023-02-01T00:37:34;101825.65;;;23.04;26.07
73242;BME280;65659;49.234;-2.094;2023-02-01T00:39:59;101824.29;;;23.02;26.07
73242;BME280;65659;49.234;-2.094;2023-02-01T00:42:25;101825.12;;;23.51;26.01
73242;BME280;65659;49.234;-2.094;2023-02-01T00:44:50;101812.63;;;23.52;26.03
73242;BME280;65659;49.234;-2.094;2023-02-01T00:47:16;101808.60;;;23.26;26.02
73242;BME280;65659;49.234;-2.094;2023-02-01T00:49:42;101812.31;;;23.32;25.96
73242;BME280;65659;49.234;-2.094;2023-02-01T00:52:08;101818.76;;;23.32;25.95
73242;BME280;65659;49.234;-2.094;2023-02-01T00:54:34;101821.17;;;23.55;25.92
73242;BME280;65659;49.234;-2.094;2023-02-01T00:56:59;101818.05;;;23.29;25.94
73242;BME280;65659;49.234;-2.094;2023-02-01T00:59:25;101812.73;;;23.29;25.94
73242;BME280;65659;49.234;-2.094;2023-02-01T01:01:51;101819.46;;;23.33;25.88
73242;BME280;65659;49.234;-2.094;2023-02-01T01:04:16;101822.08;;;23.07;25.91
73242;BME280;65659;49.234;-2.094;2023-02-01T01:06:42;101818.28;;;23.05;25.96
73242;BME280;65659;49.234;-2.094;2023-02-01T01:09:09;101815.57;;;23.27;26.01
73242;BME280;65659;49.234;-2.094;2023-02-01T01:11:36;101818.21;;;23.03;25.98
73242;BME280;65659;49.234;-2.094;2023-02-01T01:14:00;101823.10;;;23.26;26.02
73242;BME280;65659;49.234;-2.094;2023-02-01T01:16:26;101831.64;;;22.99;26.01
73242;BME280;65659;49.234;-2.094;2023-02-01T01:18:51;101838.03;;;23.24;25.99
73242;BME280;65659;49.234;-2.094;2023-02-01T01:21:17;101845.16;;;23.22;26.00
73242;BME280;65659;49.234;-2.094;2023-02-01T01:23:42;101851.96;;;23.24;25.99
73242;BME280;65659;49.234;-2.094;2023-02-01T01:26:09;101852.58;;;23.01;25.97
73242;BME280;65659;49.234;-2.094;2023-02-01T01:28:34;101852.43;;;23.25;25.95
73242;BME280;65659;49.234;-2.094;2023-02-01T01:30:59;101853.26;;;23.22;25.97
73242;BME280;65659;49.234;-2.094;2023-02-01T01:33:24;101851.03;;;22.96;25.95
73242;BME280;65659;49.234;-2.094;2023-02-01T01:35:50;101849.98;;;22.99;25.94
73242;BME280;65659;49.234;-2.094;2023-02-01T01:38:21;101852.90;;;23.52;25.89
73242;BME280;65659;49.234;-2.094;2023-02-01T01:40:45;101856.74;;;23.03;25.88
73242;BME280;65659;49.234;-2.094;2023-02-01T01:43:13;101850.16;;;23.49;25.83
73242;BME280;65659;49.234;-2.094;2023-02-01T01:45:34;101849.38;;;23.25;25.87
73242;BME280;65659;49.234;-2.094;2023-02-01T01:48:02;101849.86;;;23.48;25.91
73242;BME280;65659;49.234;-2.094;2023-02-01T01:50:28;101842.02;;;23.00;25.87
73242;BME280;65659;49.234;-2.094;2023-02-01T01:52:52;101830.90;;;23.22;25.89
73242;BME280;65659;49.234;-2.094;2023-02-01T01:55:18;101831.57;;;23.46;25.89
73242;BME280;65659;49.234;-2.094;2023-02-01T01:57:46;101832.70;;;22.99;25.87
73242;BME280;65659;49.234;-2.094;2023-02-01T02:00:11;101835.83;;;23.47;25.83
73242;BME280;65659;49.234;-2.094;2023-02-01T02:02:35;101840.10;;;23.24;25.86
73242;BME280;65659;49.234;-2.094;2023-02-01T02:04:59;101844.65;;;23.23;25.87
73242;BME280;65659;49.234;-2.094;2023-02-01T02:07:27;101838.70;;;23.21;25.90
73242;BME280;65659;49.234;-2.094;2023-02-01T02:09:51;101837.28;;;23.23;25.91
73242;BME280;65659;49.234;-2.094;2023-02-01T02:12:16;101838.19;;;23.46;25.89
73242;BME280;65659;49.234;-2.094;2023-02-01T02:14:42;101844.38;;;23.02;25.87
73242;BME280;65659;49.234;-2.094;2023-02-01T02:17:21;101847.77;;;23.50;25.85
73242;BME280;65659;49.234;-2.094;2023-02-01T02:22:09;101854.50;;;23.22;25.88
73242;BME280;65659;49.234;-2.094;2023-02-01T02:24:51;101856.32;;;23.00;25.85
73242;BME280;65659;49.234;-2.094;2023-02-01T02:27:00;101848.90;;;23.02;25.81
73242;BME280;65659;49.234;-2.094;2023-02-01T02:32:03;101842.66;;;22.98;25.88
73242;BME280;65659;49.234;-2.094;2023-02-01T02:34:14;101833.17;;;23.22;25.88
73242;BME280;65659;49.234;-2.094;2023-02-01T02:36:41;101834.50;;;23.46;25.88
73242;BME280;65659;49.234;-2.094;2023-02-01T02:39:06;101831.40;;;23.46;25.84
73242;BME280;65659;49.234;-2.094;2023-02-01T02:41:29;101831.64;;;22.97;25.90
73242;BME280;65659;49.234;-2.094;2023-02-01T02:43:56;101822.57;;;23.20;25.87
73242;BME280;65659;49.234;-2.094;2023-02-01T02:46:22;101819.09;;;23.42;25.91
73242;BME280;65659;49.234;-2.094;2023-02-01T02:48:46;101814.75;;;23.18;25.91
73242;BME280;65659;49.234;-2.094;2023-02-01T02:51:11;101824.79;;;22.97;25.88
73242;BME280;65659;49.234;-2.094;2023-02-01T02:53:38;101828.51;;;23.23;25.84
73242;BME280;65659;49.234;-2.094;2023-02-01T02:56:00;101835.45;;;23.21;25.86
73242;BME280;65659;49.234;-2.094;2023-02-01T02:58:25;101836.05;;;23.22;25.87
73242;BME280;65659;49.234;-2.094;2023-02-01T03:00:56;101825.74;;;23.21;25.84
73242;BME280;65659;49.234;-2.094;2023-02-01T03:03:16;101825.42;;;22.94;25.87
73242;BME280;65659;49.234;-2.094;2023-02-01T03:05:44;101824.89;;;23.16;25.86
73242;BME280;65659;49.234;-2.094;2023-02-01T03:08:14;101824.64;;;23.38;25.90
73242;BME280;65659;49.234;-2.094;2023-02-01T03:10:41;101824.72;;;23.38;25.86
73242;BME280;65659;49.234;-2.094;2023-02-01T03:13:03;101831.01;;;23.37;25.82
73242;BME280;65659;49.234;-2.094;2023-02-01T03:15:31;101838.93;;;23.14;25.85
73242;BME280;65659;49.234;-2.094;2023-02-01T03:17:51;101835.26;;;23.37;25.82
73242;BME280;65659;49.234;-2.094;2023-02-01T03:20:17;101837.84;;;23.15;25.84
73242;BME280;65659;49.234;-2.094;2023-02-01T03:22:44;101827.01;;;23.38;25.81
73242;BME280;65659;49.234;-2.094;2023-02-01T03:25:11;101815.45;;;23.14;25.78
73242;BME280;65659;49.234;-2.094;2023-02-01T03:27:36;101811.59;;;23.17;25.79
73242;BME280;65659;49.234;-2.094;2023-02-01T03:30:02;101817.05;;;23.21;25.79
73242;BME280;65659;49.234;-2.094;2023-02-01T03:32:25;101821.06;;;23.19;25.75
73242;BME280;65659;49.234;-2.094;2023-02-01T03:34:51;101823.91;;;23.41;25.79
73242;BME280;65659;49.234;-2.094;2023-02-01T03:37:21;101823.55;;;23.17;25.80
73242;BME280;65659;49.234;-2.094;2023-02-01T03:39:47;101826.26;;;22.94;25.76
73242;BME280;65659;49.234;-2.094;2023-02-01T03:42:10;101824.13;;;23.40;25.72
73242;BME280;65659;49.234;-2.094;2023-02-01T03:44:36;101826.21;;;23.40;25.76
73242;BME280;65659;49.234;-2.094;2023-02-01T03:47:03;101827.62;;;23.41;25.75
73242;BME280;65659;49.234;-2.094;2023-02-01T03:49:28;101822.26;;;23.15;25.77
73242;BME280;65659;49.234;-2.094;2023-02-01T03:51:51;101820.14;;;23.14;25.78
73242;BME280;65659;49.234;-2.094;2023-02-01T03:54:18;101811.84;;;23.13;25.77
73242;BME280;65659;49.234;-2.094;2023-02-01T03:56:44;101805.41;;;22.87;25.76
73242;BME280;65659;49.234;-2.094;2023-02-01T03:59:08;101811.59;;;23.37;25.77
73242;BME280;65659;49.234;-2.094;2023-02-01T04:01:35;101812.65;;;22.88;25.72
73242;BME280;65659;49.234;-2.094;2023-02-01T04:03:59;101811.11;;;23.13;25.77
73242;BME280;65659;49.234;-2.094;2023-02-01T04:06:25;101806.88;;;23.16;25.70
73242;BME280;65659;49.234;-2.094;2023-02-01T04:08:50;101808.55;;;23.40;25.68
73242;BME280;65659;49.234;-2.094;2023-02-01T04:11:16;101811.72;;;23.37;25.72
73242;BME280;65659;49.234;-2.094;2023-02-01T04:13:42;101811.68;;;22.89;25.72
73242;BME280;65659;49.234;-2.094;2023-02-01T04:16:07;101812.09;;;23.10;25.77
73242;BME280;65659;49.234;-2.094;2023-02-01T04:18:33;101817.58;;;23.10;25.74
73242;BME280;65659;49.234;-2.094;2023-02-01T04:20:59;101817.48;;;23.32;25.74
73242;BME280;65659;49.234;-2.094;2023-02-01T04:23:30;101818.33;;;23.08;25.73
73242;BME280;65659;49.234;-2.094;2023-02-01T04:25:50;101822.82;;;23.08;25.72
73242;BME280;65659;49.234;-2.094;2023-02-01T04:28:16;101823.48;;;23.10;25.73
73242;BME280;65659;49.234;-2.094;2023-02-01T04:30:42;101827.37;;;22.86;25.75
73242;BME280;65659;49.234;-2.094;2023-02-01T04:33:07;101832.36;;;23.34;25.70
73242;BME280;65659;49.234;-2.094;2023-02-01T04:35:34;101828.03;;;23.10;25.77
73242;BME280;65659;49.234;-2.094;2023-02-01T04:37:59;101832.04;;;23.08;25.72
73242;BME280;65659;49.234;-2.094;2023-02-01T04:40:25;101834.65;;;23.32;25.70
73242;BME280;65659;49.234;-2.094;2023-02-01T04:42:50;101831.60;;;23.13;25.64
73242;BME280;65659;49.234;-2.094;2023-02-01T04:45:16;101831.73;;;23.36;25.64
73242;BME280;65659;49.234;-2.094;2023-02-01T04:47:42;101829.65;;;22.88;25.64
73242;BME280;65659;49.234;-2.094;2023-02-01T04:50:10;101830.59;;;22.41;25.63
73242;BME280;65659;49.234;-2.094;2023-02-01T04:52:34;101836.43;;;22.94;25.37
73242;BME280;65659;49.234;-2.094;2023-02-01T04:54:58;101837.20;;;23.52;25.48
73242;BME280;65659;49.234;-2.094;2023-02-01T04:57:24;101835.04;;;22.93;25.56
73242;BME280;65659;49.234;-2.094;2023-02-01T04:59:50;101842.84;;;23.11;25.65
73242;BME280;65659;49.234;-2.094;2023-02-01T05:02:16;101842.76;;;23.08;25.68
73242;BME280;65659;49.234;-2.094;2023-02-01T05:04:41;101847.52;;;22.83;25.67
73242;BME280;65659;49.234;-2.094;2023-02-01T05:07:07;101848.69;;;23.06;25.66
73242;BME280;65659;49.234;-2.094;2023-02-01T05:09:33;101851.19;;;23.06;25.65
73242;BME280;65659;49.234;-2.094;2023-02-01T05:12:00;101851.39;;;23.04;25.58
73242;BME280;65659;49.234;-2.094;2023-02-01T05:14:24;101849.24;;;23.30;25.60
73242;BME280;65659;49.234;-2.094;2023-02-01T05:16:50;101843.87;;;23.29;25.59
73242;BME280;65659;49.234;-2.094;2023-02-01T05:19:16;101842.78;;;23.07;25.58
73242;BME280;65659;49.234;-2.094;2023-02-01T05:21:42;101848.27;;;23.07;25.59
73242;BME280;65659;49.234;-2.094;2023-02-01T05:24:13;101857.56;;;23.04;25.51
73242;BME280;65659;49.234;-2.094;2023-02-01T05:26:33;101853.85;;;23.03;25.48
73242;BME280;65659;49.234;-2.094;2023-02-01T05:28:59;101858.15;;;23.03;25.47
73242;BME280;65659;49.234;-2.094;2023-02-01T05:31:25;101853.72;;;23.03;25.49
73242;BME280;65659;49.234;-2.094;2023-02-01T05:33:50;101847.31;;;23.03;25.53
73242;BME280;65659;49.234;-2.094;2023-02-01T05:36:16;101846.32;;;23.27;25.53
73242;BME280;65659;49.234;-2.094;2023-02-01T05:38:42;101837.18;;;23.03;25.52
73242;BME280;65659;49.234;-2.094;2023-02-01T05:41:08;101837.42;;;22.80;25.52
73242;BME280;65659;49.234;-2.094;2023-02-01T05:43:34;101838.19;;;23.01;25.54
73242;BME280;65659;49.234;-2.094;2023-02-01T05:45:59;101825.11;;;23.26;25.53
73242;BME280;65659;49.234;-2.094;2023-02-01T05:48:25;101822.82;;;22.79;25.48
73242;BME280;65659;49.234;-2.094;2023-02-01T05:50:50;101828.02;;;22.88;25.41
73242;BME280;65659;49.234;-2.094;2023-02-01T05:53:16;101833.42;;;23.06;25.43
73242;BME280;65659;49.234;-2.094;2023-02-01T05:55:42;101836.09;;;23.31;25.44
73242;BME280;65659;49.234;-2.094;2023-02-01T05:58:08;101836.33;;;23.08;25.44
73242;BME280;65659;49.234;-2.094;2023-02-01T06:00:35;101838.61;;;23.30;25.46
73242;BME280;65659;49.234;-2.094;2023-02-01T06:02:59;101845.55;;;23.27;25.47
73242;BME280;65659;49.234;-2.094;2023-02-01T06:05:25;101854.93;;;23.25;25.47
73242;BME280;65659;49.234;-2.094;2023-02-01T06:07:51;101851.41;;;22.76;25.47
73242;BME280;65659;49.234;-2.094;2023-02-01T06:10:17;101847.43;;;22.78;25.39
73242;BME280;65659;49.234;-2.094;2023-02-01T06:12:42;101851.59;;;23.09;25.34
73242;BME280;65659;49.234;-2.094;2023-02-01T06:15:09;101858.29;;;23.28;25.38
73242;BME280;65659;49.234;-2.094;2023-02-01T06:17:34;101862.46;;;23.00;25.38
73242;BME280;65659;49.234;-2.094;2023-02-01T06:19:59;101867.04;;;22.99;25.37
73242;BME280;65659;49.234;-2.094;2023-02-01T06:22:25;101864.91;;;22.97;25.36
73242;BME280;65659;49.234;-2.094;2023-02-01T06:24:50;101861.31;;;22.99;25.34
73242;BME280;65659;49.234;-2.094;2023-02-01T06:27:16;101858.92;;;23.02;25.30
73242;BME280;65659;49.234;-2.094;2023-02-01T06:29:42;101856.46;;;23.00;25.27
73242;BME280;65659;49.234;-2.094;2023-02-01T06:32:08;101844.92;;;22.81;25.26
73242;BME280;65659;49.234;-2.094;2023-02-01T06:34:34;101838.20;;;23.03;25.28
73242;BME280;65659;49.234;-2.094;2023-02-01T06:36:59;101834.40;;;22.99;25.28
73242;BME280;65659;49.234;-2.094;2023-02-01T06:39:25;101832.87;;;23.22;25.26
73242;BME280;65659;49.234;-2.094;2023-02-01T06:41:50;101834.05;;;22.98;25.23
73242;BME280;65659;49.234;-2.094;2023-02-01T06:44:17;101836.56;;;23.21;25.31
73242;BME280;65659;49.234;-2.094;2023-02-01T06:46:43;101836.38;;;22.97;25.28
73242;BME280;65659;49.234;-2.094;2023-02-01T06:49:08;101841.03;;;22.96;25.33
73242;BME280;65659;49.234;-2.094;2023-02-01T06:51:34;101835.91;;;23.18;25.26
73242;BME280;65659;49.234;-2.094;2023-02-01T06:53:59;101826.32;;;22.72;25.33
73242;BME280;65659;49.234;-2.094;2023-02-01T06:56:25;101819.87;;;22.97;25.26
73242;BME280;65659;49.234;-2.094;2023-02-01T06:58:51;101819.39;;;22.98;25.23
73242;BME280;65659;49.234;-2.094;2023-02-01T07:01:17;101825.08;;;23.23;25.22
73242;BME280;65659;49.234;-2.094;2023-02-01T07:03:42;101817.22;;;22.99;25.23
73242;BME280;65659;49.234;-2.094;2023-02-01T07:06:09;101820.07;;;22.75;25.20
73242;BME280;65659;49.234;-2.094;2023-02-01T07:08:36;101820.28;;;22.78;25.17
73242;BME280;65659;49.234;-2.094;2023-02-01T07:11:02;101824.45;;;23.26;25.17
73242;BME280;65659;49.234;-2.094;2023-02-01T07:13:30;101823.89;;;23.25;25.25
73242;BME280;65659;49.234;-2.094;2023-02-01T07:15:51;101830.91;;;23.01;25.20
73242;BME280;65659;49.234;-2.094;2023-02-01T07:18:16;101833.86;;;23.00;25.23
73242;BME280;65659;49.234;-2.094;2023-02-01T07:20:42;101832.83;;;23.02;25.20
73242;BME280;65659;49.234;-2.094;2023-02-01T07:23:09;101829.57;;;23.00;25.17
73242;BME280;65659;49.234;-2.094;2023-02-01T07:25:35;101834.13;;;23.20;25.27
73242;BME280;65659;49.234;-2.094;2023-02-01T07:27:59;101840.94;;;23.17;25.27
73242;BME280;65659;49.234;-2.094;2023-02-01T07:30:26;101838.67;;;23.16;25.35
73242;BME280;65659;49.234;-2.094;2023-02-01T07:32:51;101835.27;;;23.15;25.33
73242;BME280;65659;49.234;-2.094;2023-02-01T07:35:16;101830.79;;;23.13;25.35
73242;BME280;65659;49.234;-2.094;2023-02-01T07:37:42;101828.12;;;23.13;25.31
73242;BME280;65659;49.234;-2.094;2023-02-01T07:40:09;101833.16;;;23.15;25.31
73242;BME280;65659;49.234;-2.094;2023-02-01T07:42:34;101838.52;;;23.16;25.26
73242;BME280;65659;49.234;-2.094;2023-02-01T07:45:00;101844.55;;;23.17;25.29
73242;BME280;65659;49.234;-2.094;2023-02-01T07:47:25;101851.09;;;23.24;25.15
73242;BME280;65659;49.234;-2.094;2023-02-01T07:49:51;101852.93;;;23.22;25.21
73242;BME280;65659;49.234;-2.094;2023-02-01T07:52:17;101853.56;;;22.95;25.17
73242;BME280;65659;49.234;-2.094;2023-02-01T07:54:42;101856.35;;;23.18;25.16
73242;BME280;65659;49.234;-2.094;2023-02-01T07:57:08;101855.08;;;22.94;25.13
73242;BME280;65659;49.234;-2.094;2023-02-01T07:59:35;101858.74;;;22.93;25.05
73242;BME280;65659;49.234;-2.094;2023-02-01T08:01:59;101861.33;;;23.15;25.18
73242;BME280;65659;49.234;-2.094;2023-02-01T08:04:25;101867.32;;;23.15;25.17
73242;BME280;65659;49.234;-2.094;2023-02-01T08:06:50;101872.17;;;22.89;25.20
73242;BME280;65659;49.234;-2.094;2023-02-01T08:09:16;101874.90;;;23.13;25.17
73242;BME280;65659;49.234;-2.094;2023-02-01T08:11:42;101875.65;;;23.13;25.18
73242;BME280;65659;49.234;-2.094;2023-02-01T08:14:08;101881.27;;;22.88;25.18
73242;BME280;65659;49.234;-2.094;2023-02-01T08:16:34;101884.54;;;23.08;25.07
73242;BME280;65659;49.234;-2.094;2023-02-01T08:18:59;101888.79;;;23.11;25.19
73242;BME280;65659;49.234;-2.094;2023-02-01T08:21:26;101882.99;;;23.15;25.14
73242;BME280;65659;49.234;-2.094;2023-02-01T08:23:56;101886.16;;;22.96;25.02
73242;BME280;65659;49.234;-2.094;2023-02-01T08:26:18;101887.48;;;22.96;25.10
73242;BME280;65659;49.234;-2.094;2023-02-01T08:28:43;101892.68;;;23.19;25.18
73242;BME280;65659;49.234;-2.094;2023-02-01T08:31:09;101897.98;;;23.17;25.18
73242;BME280;65659;49.234;-2.094;2023-02-01T08:33:34;101893.88;;;23.15;25.24
73242;BME280;65659;49.234;-2.094;2023-02-01T08:36:02;101893.97;;;23.16;25.16
73242;BME280;65659;49.234;-2.094;2023-02-01T08:38:25;101889.90;;;22.90;25.22
73242;BME280;65659;49.234;-2.094;2023-02-01T08:40:50;101889.01;;;23.12;25.11
73242;BME280;65659;49.234;-2.094;2023-02-01T08:43:17;101890.43;;;22.92;25.23
73242;BME280;65659;49.234;-2.094;2023-02-01T08:48:14;101889.22;;;22.96;25.15
73242;BME280;65659;49.234;-2.094;2023-02-01T08:50:47;101887.59;;;23.22;25.13
73242;BME280;65659;49.234;-2.094;2023-02-01T08:53:00;101886.25;;;21.39;25.14
73242;BME280;65659;49.234;-2.094;2023-02-01T08:55:46;101888.98;;;23.41;24.53
73242;BME280;65659;49.234;-2.094;2023-02-01T09:00:44;101887.70;;;23.30;24.78
73242;BME280;65659;49.234;-2.094;2023-02-01T09:03:02;101884.91;;;22.91;24.81
73242;BME280;65659;49.234;-2.094;2023-02-01T09:05:35;101884.10;;;23.12;24.96
73242;BME280;65659;49.234;-2.094;2023-02-01T09:10:09;101878.25;;;23.05;25.06
73242;BME280;65659;49.234;-2.094;2023-02-01T09:12:46;101882.63;;;22.79;25.12
73242;BME280;65659;49.234;-2.094;2023-02-01T09:15:09;101884.43;;;23.27;25.07
73242;BME280;65659;49.234;-2.094;2023-02-01T09:19:53;101879.62;;;23.22;25.09
73242;BME280;65659;49.234;-2.094;2023-02-01T09:22:09;101880.78;;;22.98;25.18
73242;BME280;65659;49.234;-2.094;2023-02-01T09:25:03;101880.49;;;23.22;25.18
73242;BME280;65659;49.234;-2.094;2023-02-01T09:27:06;101879.01;;;22.75;25.14
73242;BME280;65659;49.234;-2.094;2023-02-01T09:29:25;101883.51;;;23.23;25.11
73242;BME280;65659;49.234;-2.094;2023-02-01T09:32:19;101882.49;;;23.23;25.05
73242;BME280;65659;49.234;-2.094;2023-02-01T09:34:20;101876.56;;;23.21;25.12
73242;BME280;65659;49.234;-2.094;2023-02-01T09:36:52;101878.70;;;22.75;25.05
73242;BME280;65659;49.234;-2.094;2023-02-01T09:39:11;101879.66;;;23.02;25.04
73242;BME280;65659;49.234;-2.094;2023-02-01T09:41:54;101880.26;;;23.23;25.14
73242;BME280;65659;49.234;-2.094;2023-02-01T09:44:25;101889.14;;;23.02;25.16
73242;BME280;65659;49.234;-2.094;2023-02-01T09:46:36;101895.70;;;22.99;25.21
73242;BME280;65659;49.234;-2.094;2023-02-01T09:49:04;101908.41;;;22.96;25.26
73242;BME280;65659;49.234;-2.094;2023-02-01T09:51:32;101914.59;;;23.21;25.22
73242;BME280;65659;49.234;-2.094;2023-02-01T09:53:53;101918.46;;;22.96;25.23
73242;BME280;65659;49.234;-2.094;2023-02-01T09:56:22;101920.30;;;22.98;25.23
73242;BME280;65659;49.234;-2.094;2023-02-01T09:58:36;101928.11;;;23.26;25.25
73242;BME280;65659;49.234;-2.094;2023-02-01T10:01:20;101937.69;;;23.20;25.25
73242;BME280;65659;49.234;-2.094;2023-02-01T10:03:27;101947.88;;;22.72;25.26
73242;BME280;65659;49.234;-2.094;2023-02-01T10:06:18;101951.68;;;22.96;25.27
73242;BME280;65659;49.234;-2.094;2023-02-01T10:08:40;101947.25;;;23.18;25.23
73242;BME280;65659;49.234;-2.094;2023-02-01T10:11:13;101934.57;;;22.71;25.19
73242;BME280;65659;49.234;-2.094;2023-02-01T10:13:33;101929.56;;;22.92;25.31
73242;BME280;65659;49.234;-2.094;2023-02-01T10:15:49;101924.70;;;23.31;25.24
73242;BME280;65659;49.234;-2.094;2023-02-01T10:18:27;101921.76;;;23.34;25.15
73242;BME280;65659;49.234;-2.094;2023-02-01T10:20:29;101918.03;;;23.03;25.21
73242;BME280;65659;49.234;-2.094;2023-02-01T10:22:59;101918.05;;;23.09;25.22
73242;BME280;65659;49.234;-2.094;2023-02-01T10:25:21;101920.66;;;23.31;25.20
73242;BME280;65659;49.234;-2.094;2023-02-01T10:27:54;101917.30;;;23.06;25.25
73242;BME280;65659;49.234;-2.094;2023-02-01T10:30:23;101916.38;;;23.04;25.30
73242;BME280;65659;49.234;-2.094;2023-02-01T10:32:38;101925.39;;;23.08;25.39
73242;BME280;65659;49.234;-2.094;2023-02-01T10:34:59;101930.51;;;23.10;25.42
73242;BME280;65659;49.234;-2.094;2023-02-01T10:37:27;101933.70;;;23.09;25.50
73242;BME280;65659;49.234;-2.094;2023-02-01T10:39:49;101930.78;;;23.06;25.56
73242;BME280;65659;49.234;-2.094;2023-02-01T10:42:15;101929.18;;;23.26;25.61
73242;BME280;65659;49.234;-2.094;2023-02-01T10:44:43;101934.07;;;23.28;25.67
73242;BME280;65659;49.234;-2.094;2023-02-01T10:47:08;101939.15;;;22.95;25.54
73242;BME280;65659;49.234;-2.094;2023-02-01T10:49:38;101940.26;;;23.09;25.38
73242;BME280;65659;49.234;-2.094;2023-02-01T10:52:10;101944.07;;;23.05;25.42
73242;BME280;65659;49.234;-2.094;2023-02-01T10:54:32;101949.41;;;23.20;25.50
73242;BME280;65659;49.234;-2.094;2023-02-01T10:56:55;101949.71;;;23.14;25.57
73242;BME280;65659;49.234;-2.094;2023-02-01T10:59:33;101951.11;;;23.08;25.66
73242;BME280;65659;49.234;-2.094;2023-02-01T11:01:58;101948.90;;;23.06;25.74
73242;BME280;65659;49.234;-2.094;2023-02-01T11:04:09;101952.83;;;23.08;25.75
73242;BME280;65659;49.234;-2.094;2023-02-01T11:06:34;101941.89;;;23.07;25.80
73242;BME280;65659;49.234;-2.094;2023-02-01T11:08:59;101934.36;;;23.31;25.83
73242;BME280;65659;49.234;-2.094;2023-02-01T11:11:27;101934.16;;;22.84;25.78
73242;BME280;65659;49.234;-2.094;2023-02-01T11:13:58;101930.13;;;23.09;25.76
73242;BME280;65659;49.234;-2.094;2023-02-01T11:16:14;101928.81;;;23.34;25.73
73242;BME280;65659;49.234;-2.094;2023-02-01T11:18:39;101925.65;;;22.88;25.76
73242;BME280;65659;49.234;-2.094;2023-02-01T11:21:06;101924.20;;;23.36;25.76
73242;BME280;65659;49.234;-2.094;2023-02-01T11:23:32;101922.43;;;23.38;25.75
73242;BME280;65659;49.234;-2.094;2023-02-01T11:25:58;101915.84;;;23.12;25.85
73242;BME280;65659;49.234;-2.094;2023-02-01T11:28:25;101914.91;;;22.92;25.87
73242;BME280;65659;49.234;-2.094;2023-02-01T11:30:48;101911.85;;;23.42;25.79
73242;BME280;65659;49.234;-2.094;2023-02-01T11:33:16;101911.38;;;23.16;25.82
73242;BME280;65659;49.234;-2.094;2023-02-01T11:35:39;101913.12;;;23.17;25.81
73242;BME280;65659;49.234;-2.094;2023-02-01T11:38:19;101916.33;;;23.41;25.80
73242;BME280;65659;49.234;-2.094;2023-02-01T11:40:36;101916.78;;;23.21;25.73
73242;BME280;65659;49.234;-2.094;2023-02-01T11:42:58;101911.91;;;23.44;25.77
73242;BME280;65659;49.234;-2.094;2023-02-01T11:47:52;101909.28;;;23.28;25.76
73242;BME280;65659;49.234;-2.094;2023-02-01T11:50:26;101907.65;;;23.07;25.75
73242;BME280;65659;49.234;-2.094;2023-02-01T11:52:54;101905.39;;;23.15;25.85
73242;BME280;65659;49.234;-2.094;2023-02-01T11:55:38;101909.02;;;23.37;25.79
73242;BME280;65659;49.234;-2.094;2023-02-01T11:57:52;101910.30;;;23.10;25.94
73242;BME280;65659;49.234;-2.094;2023-02-01T12:00:06;101908.25;;;23.28;26.09
73242;BME280;65659;49.234;-2.094;2023-02-01T12:02:49;101911.84;;;23.28;25.92
73242;BME280;65659;49.234;-2.094;2023-02-01T12:07:18;101900.98;;;23.07;25.85
73242;BME280;65659;49.234;-2.094;2023-02-01T12:09:48;101903.51;;;23.06;25.87
73242;BME280;65659;49.234;-2.094;2023-02-01T12:12:12;101903.60;;;23.28;26.04
73242;BME280;65659;49.234;-2.094;2023-02-01T12:14:40;101897.05;;;23.08;26.03
73242;BME280;65659;49.234;-2.094;2023-02-01T12:17:14;101891.71;;;23.33;25.83
73242;BME280;65659;49.234;-2.094;2023-02-01T12:19:33;101891.48;;;21.82;25.55
73242;BME280;65659;49.234;-2.094;2023-02-01T12:22:10;101896.24;;;23.54;25.04
73242;BME280;65659;49.234;-2.094;2023-02-01T12:26:46;101895.73;;;23.24;25.55
73242;BME280;65659;49.234;-2.094;2023-02-01T12:29:20;101901.51;;;23.36;25.55
73242;BME280;65659;49.234;-2.094;2023-02-01T12:31:40;101903.42;;;23.50;25.65
73242;BME280;65659;49.234;-2.094;2023-02-01T12:34:10;101909.62;;;23.19;25.76
73242;BME280;65659;49.234;-2.094;2023-02-01T12:36:29;101909.89;;;23.42;25.88
73242;BME280;65659;49.234;-2.094;2023-02-01T12:38:54;101912.47;;;23.41;25.97
73242;BME280;65659;49.234;-2.094;2023-02-01T12:41:23;101914.33;;;23.57;25.93
73242;BME280;65659;49.234;-2.094;2023-02-01T12:43:48;101907.91;;;23.42;25.87
73242;BME280;65659;49.234;-2.094;2023-02-01T12:46:08;101901.54;;;23.39;25.83
73242;BME280;65659;49.234;-2.094;2023-02-01T12:48:33;101897.63;;;23.32;25.89
73242;BME280;65659;49.234;-2.094;2023-02-01T12:50:57;101897.74;;;23.28;25.93
73242;BME280;65659;49.234;-2.094;2023-02-01T12:53:26;101892.46;;;23.27;25.92